createdAt,value
2022-08-16T00:01:32.966Z,3.53
2022-08-16T00:04:01.381Z,3.50
2022-08-16T00:06:32.109Z,3.53
2022-08-16T00:09:01.971Z,3.43
2022-08-16T00:11:31.275Z,3.63
2022-08-16T00:14:01.769Z,3.33
2022-08-16T00:17:06.600Z,3.50
2022-08-16T00:19:41.481Z,3.70
2022-08-16T00:22:13.388Z,3.60
2022-08-16T00:24:40.921Z,3.83
2022-08-16T00:27:17.386Z,3.30
2022-08-16T00:29:44.567Z,3.73
2022-08-16T00:32:17.947Z,3.40
2022-08-16T00:34:52.897Z,3.70
2022-08-16T00:37:25.118Z,3.70
2022-08-16T00:40:34.107Z,3.30
2022-08-16T00:43:19.469Z,3.80
2022-08-16T00:46:33.343Z,3.70
2022-08-16T00:49:06.945Z,3.67
2022-08-16T00:51:44.916Z,3.63
2022-08-16T00:54:14.789Z,3.47
2022-08-16T00:57:00.023Z,3.93
2022-08-16T00:59:35.564Z,3.70
2022-08-16T01:02:30.554Z,3.53
2022-08-16T01:05:10.812Z,3.63
2022-08-16T01:07:52.209Z,4.10
2022-08-16T01:10:31.830Z,3.80
2022-08-16T01:13:27.566Z,3.80
2022-08-16T01:16:10.379Z,3.63
2022-08-16T01:18:46.281Z,3.37
2022-08-16T01:22:48.254Z,3.37
2022-08-16T01:24:55.740Z,3.80
2022-08-16T01:27:28.160Z,3.73
2022-08-16T01:30:20.533Z,3.60
2022-08-16T01:33:01.546Z,3.90
2022-08-16T01:35:47.348Z,3.97
2022-08-16T01:38:39.095Z,4.33
2022-08-16T01:41:21.971Z,3.90
2022-08-16T01:43:54.838Z,3.93
2022-08-16T01:46:39.632Z,3.70
2022-08-16T01:49:15.265Z,3.90
2022-08-16T01:51:45.824Z,4.20
2022-08-16T01:54:15.420Z,3.90
2022-08-16T01:56:45.423Z,3.90
2022-08-16T01:59:16.951Z,3.83
2022-08-16T02:01:56.231Z,4.00
2022-08-16T02:04:47.959Z,4.40
2022-08-16T02:07:19.452Z,4.30
2022-08-16T02:09:58.739Z,3.70
2022-08-16T02:12:49.513Z,3.70
2022-08-16T02:15:25.202Z,4.27
2022-08-16T02:17:58.256Z,3.80
2022-08-16T02:20:27.776Z,3.67
2022-08-16T02:22:59.758Z,4.10
2022-08-16T02:25:50.781Z,3.60
2022-08-16T02:28:19.625Z,4.10
2022-08-16T02:30:52.282Z,3.90
2022-08-16T02:33:44.572Z,4.10
2022-08-16T02:36:47.526Z,3.67
2022-08-16T02:39:05.482Z,3.97
2022-08-16T02:41:39.408Z,3.90
2022-08-16T02:44:08.547Z,4.27
2022-08-16T02:46:35.866Z,3.77
2022-08-16T02:49:08.299Z,4.00
2022-08-16T02:51:38.236Z,4.23
2022-08-16T02:54:10.896Z,4.03
2022-08-16T02:56:42.843Z,3.73
2022-08-16T02:59:17.419Z,4.10
2022-08-16T03:01:50.904Z,3.83
2022-08-16T03:04:41.538Z,4.57
2022-08-16T03:07:11.572Z,4.00
2022-08-16T03:09:41.451Z,4.13
2022-08-16T03:12:19.270Z,4.80
2022-08-16T03:14:49.249Z,4.43
2022-08-16T03:17:21.311Z,4.30
2022-08-16T03:20:00.051Z,4.70
2022-08-16T03:22:29.719Z,4.43
2022-08-16T03:25:02.851Z,4.40
2022-08-16T03:27:33.834Z,4.40
2022-08-16T03:30:16.708Z,4.20
2022-08-16T03:32:52.117Z,4.53
2022-08-16T03:35:33.172Z,4.50
2022-08-16T03:38:04.540Z,4.10
2022-08-16T03:40:53.757Z,4.67
2022-08-16T03:43:21.636Z,4.07
2022-08-16T03:45:52.729Z,4.97
2022-08-16T03:48:36.925Z,4.20
2022-08-16T03:51:14.292Z,4.27
2022-08-16T03:53:57.857Z,4.37
2022-08-16T03:56:30.365Z,4.10
2022-08-16T03:59:00.375Z,5.10
2022-08-16T04:01:29.162Z,4.50
2022-08-16T04:04:03.321Z,4.60
2022-08-16T04:06:35.183Z,4.60
2022-08-16T04:09:04.968Z,5.23
2022-08-16T04:11:39.242Z,4.80
2022-08-16T04:14:08.805Z,4.50
2022-08-16T04:16:38.449Z,4.53
2022-08-16T04:19:05.292Z,4.37
2022-08-16T04:21:35.101Z,4.50
2022-08-16T04:24:09.648Z,4.40
2022-08-16T04:26:46.080Z,4.63
2022-08-16T04:29:23.451Z,4.67
2022-08-16T04:31:56.740Z,4.87
2022-08-16T04:34:30.739Z,5.00
2022-08-16T04:37:01.836Z,4.90
2022-08-16T04:39:46.281Z,5.10
2022-08-16T04:42:17.411Z,4.90
2022-08-16T04:44:54.120Z,4.73
2022-08-16T04:47:31.332Z,4.47
2022-08-16T04:50:02.656Z,5.17
2022-08-16T04:52:34.549Z,4.63
2022-08-16T04:55:15.542Z,4.50
2022-08-16T04:57:46.310Z,5.47
2022-08-16T05:00:35.403Z,5.10
2022-08-16T05:03:09.945Z,4.57
2022-08-16T05:05:44.969Z,5.43
2022-08-16T05:08:29.582Z,5.20
2022-08-16T05:11:13.628Z,4.70
2022-08-16T05:13:46.926Z,4.83
2022-08-16T05:16:21.676Z,5.60
2022-08-16T05:18:58.924Z,5.10
2022-08-16T05:21:35.652Z,5.87
2022-08-16T05:24:03.170Z,5.03
2022-08-16T05:26:34.114Z,5.60
2022-08-16T05:29:06.683Z,5.70
2022-08-16T05:31:48.426Z,5.07
2022-08-16T05:34:22.696Z,4.73
2022-08-16T05:36:55.187Z,5.30
2022-08-16T05:39:26.091Z,5.43
2022-08-16T05:41:56.231Z,5.37
2022-08-16T05:44:25.300Z,6.03
2022-08-16T05:47:00.179Z,4.97
2022-08-16T05:49:38.291Z,5.20
2022-08-16T05:52:13.762Z,5.07
2022-08-16T05:54:58.514Z,5.83
2022-08-16T05:57:35.516Z,5.20
2022-08-16T06:00:10.282Z,5.07
2022-08-16T06:02:37.442Z,5.20
2022-08-16T06:05:06.789Z,5.77
2022-08-16T06:07:40.469Z,5.33
2022-08-16T06:10:10.565Z,5.80
2022-08-16T06:12:39.348Z,5.40
2022-08-16T06:15:16.542Z,5.17
2022-08-16T06:17:47.064Z,4.87
2022-08-16T06:20:36.058Z,6.00
2022-08-16T06:23:17.057Z,6.20
2022-08-16T06:25:44.712Z,5.90
2022-08-16T06:28:35.629Z,6.20
2022-08-16T06:31:12.084Z,6.53
2022-08-16T06:33:44.729Z,5.43
2022-08-16T06:36:16.429Z,6.30
2022-08-16T06:38:56.054Z,6.03
2022-08-16T06:41:24.293Z,5.97
2022-08-16T06:43:56.646Z,6.00
2022-08-16T06:46:31.708Z,5.63
2022-08-16T06:49:05.600Z,5.60
2022-08-16T06:51:46.572Z,6.00
2022-08-16T06:54:15.669Z,5.40
2022-08-16T06:56:43.021Z,5.50
2022-08-16T06:59:10.632Z,6.43
2022-08-16T07:01:45.100Z,6.33
2022-08-16T07:04:31.796Z,5.80
2022-08-16T07:07:01.644Z,6.30
2022-08-16T07:09:30.931Z,6.20
2022-08-16T07:12:03.586Z,6.43
2022-08-16T07:14:33.719Z,6.33
2022-08-16T07:17:08.367Z,5.97
2022-08-16T07:20:02.824Z,6.50
2022-08-16T07:22:37.605Z,6.17
2022-08-16T07:25:10.293Z,6.13
2022-08-16T07:27:39.498Z,5.90
2022-08-16T07:30:46.707Z,5.50
2022-08-16T07:33:07.345Z,5.90
2022-08-16T07:35:36.518Z,5.90
2022-08-16T07:38:19.705Z,6.37
2022-08-16T07:40:59.727Z,6.60
2022-08-16T07:43:29.766Z,6.23
2022-08-16T07:45:59.470Z,5.50
2022-08-16T07:48:30.887Z,5.50
2022-08-16T07:51:00.232Z,6.30
2022-08-16T07:53:34.756Z,5.83
2022-08-16T07:56:10.795Z,5.37
2022-08-16T07:58:42.398Z,5.50
2022-08-16T08:01:12.685Z,5.53
2022-08-16T08:03:49.510Z,5.47
2022-08-16T08:06:27.696Z,5.60
2022-08-16T08:08:59.301Z,5.57
2022-08-16T08:11:32.933Z,5.63
2022-08-16T08:14:03.684Z,5.53
2022-08-16T08:16:33.287Z,5.00
2022-08-16T08:19:10.371Z,6.10
2022-08-16T08:21:59.336Z,5.40
2022-08-16T08:24:32.895Z,5.57
2022-08-16T08:27:04.521Z,5.20
2022-08-16T08:29:37.370Z,5.70
2022-08-16T08:32:57.572Z,5.80
2022-08-16T08:35:03.547Z,5.30
2022-08-16T08:37:54.607Z,5.40
2022-08-16T08:40:24.491Z,5.40
2022-08-16T08:43:11.395Z,5.87
2022-08-16T08:45:46.973Z,5.30
2022-08-16T08:48:33.836Z,5.17
2022-08-16T08:51:09.735Z,5.60
2022-08-16T08:53:44.247Z,5.47
2022-08-16T08:56:23.021Z,5.03
2022-08-16T08:58:59.042Z,5.07
2022-08-16T09:01:42.892Z,5.17
2022-08-16T09:04:24.307Z,5.03
2022-08-16T09:06:53.572Z,4.97
2022-08-16T09:09:24.101Z,4.57
2022-08-16T09:12:06.559Z,5.20
2022-08-16T09:14:39.064Z,4.77
2022-08-16T09:17:38.409Z,5.13
2022-08-16T09:20:10.511Z,4.67
2022-08-16T09:22:42.171Z,4.57
2022-08-16T09:25:12.336Z,4.70
2022-08-16T09:27:56.589Z,5.27
2022-08-16T09:30:34.342Z,4.93
2022-08-16T09:33:08.741Z,5.20
2022-08-16T09:35:39.011Z,5.07
2022-08-16T09:38:09.897Z,4.67
2022-08-16T09:40:43.733Z,4.90
2022-08-16T09:43:53.491Z,4.97
2022-08-16T09:46:44.794Z,4.30
2022-08-16T09:48:58.206Z,4.57
2022-08-16T09:51:36.821Z,4.80
2022-08-16T09:54:09.803Z,4.60
2022-08-16T09:56:51.619Z,4.43
2022-08-16T09:59:30.611Z,5.10
2022-08-16T10:02:00.824Z,4.60
2022-08-16T10:04:54.329Z,4.77
2022-08-16T10:07:26.596Z,4.20
2022-08-16T10:10:18.942Z,4.43
2022-08-16T10:13:12.258Z,5.40
2022-08-16T10:15:55.167Z,5.90
2022-08-16T10:19:01.418Z,5.87
2022-08-16T10:21:15.695Z,5.60
2022-08-16T10:23:44.000Z,5.90
2022-08-16T10:27:16.311Z,4.63
2022-08-16T10:29:05.772Z,4.97
2022-08-16T10:31:43.602Z,4.77
2022-08-16T10:34:30.785Z,4.90
2022-08-16T10:37:03.049Z,4.53
2022-08-16T10:39:40.760Z,4.83
2022-08-16T10:42:13.564Z,4.67
2022-08-16T10:44:42.383Z,4.33
2022-08-16T10:47:12.517Z,4.67
2022-08-16T10:49:44.513Z,4.70
2022-08-16T10:52:17.938Z,4.20
2022-08-16T10:55:40.268Z,4.60
2022-08-16T10:57:45.522Z,4.77
2022-08-16T11:00:22.569Z,4.50
2022-08-16T11:02:59.116Z,4.40
2022-08-16T11:08:35.852Z,4.57
2022-08-16T11:11:11.806Z,4.47
2022-08-16T11:14:11.428Z,5.10
2022-08-16T11:19:25.818Z,4.47
2022-08-16T11:24:46.629Z,4.60
2022-08-16T11:27:36.339Z,4.60
2022-08-16T11:30:09.097Z,4.43
2022-08-16T11:32:44.235Z,4.30
2022-08-16T11:35:43.013Z,4.47
2022-08-16T11:38:46.435Z,4.93
2022-08-16T11:41:11.224Z,4.70
2022-08-16T11:43:41.930Z,4.87
2022-08-16T11:46:44.917Z,4.73
2022-08-16T11:49:09.930Z,4.80
2022-08-16T11:51:40.664Z,4.63
2022-08-16T11:54:20.515Z,4.50
2022-08-16T11:56:56.529Z,4.50
2022-08-16T11:59:28.907Z,4.40
2022-08-16T12:02:30.912Z,5.00
2022-08-16T12:04:46.667Z,4.50
2022-08-16T12:07:23.838Z,4.60
2022-08-16T12:09:56.615Z,4.67
2022-08-16T12:12:23.956Z,4.33
2022-08-16T12:15:00.086Z,4.17
2022-08-16T12:17:31.569Z,4.40
2022-08-16T12:20:05.135Z,4.10
2022-08-16T12:22:37.128Z,4.17
2022-08-16T12:25:17.594Z,4.53
2022-08-16T12:27:49.848Z,4.57
2022-08-16T12:30:27.092Z,4.30
2022-08-16T12:33:04.736Z,3.83
2022-08-16T12:35:39.177Z,4.20
2022-08-16T12:38:41.200Z,4.30
2022-08-16T12:41:04.304Z,4.50
2022-08-16T12:43:35.849Z,4.73
2022-08-16T12:46:03.535Z,4.28
2022-08-16T12:48:50.776Z,4.40
2022-08-16T12:51:24.217Z,4.40
2022-08-16T12:53:56.560Z,4.47
2022-08-16T12:56:33.514Z,4.60
2022-08-16T12:59:11.400Z,4.20
2022-08-16T13:01:38.805Z,4.18
2022-08-16T13:04:12.021Z,4.70
2022-08-16T13:06:48.543Z,4.30
2022-08-16T13:09:20.780Z,4.72
2022-08-16T13:12:19.421Z,4.78
2022-08-16T13:14:50.051Z,4.35
2022-08-16T13:17:26.170Z,3.78
2022-08-16T13:20:12.565Z,3.90
2022-08-16T13:23:07.528Z,3.97
2022-08-16T13:25:44.685Z,4.25
2022-08-16T13:28:19.242Z,4.18
2022-08-16T13:30:53.854Z,4.53
2022-08-16T13:33:39.119Z,4.50
2022-08-16T13:36:17.028Z,4.00
2022-08-16T13:38:53.147Z,3.97
2022-08-16T13:41:21.472Z,4.43
2022-08-16T13:43:50.966Z,4.40
2022-08-16T13:46:28.342Z,3.88
2022-08-16T13:48:59.795Z,3.72
2022-08-16T13:51:30.856Z,4.28
2022-08-16T13:54:07.308Z,4.20
2022-08-16T13:56:39.727Z,4.13
2022-08-16T13:59:20.427Z,3.80
2022-08-16T14:01:59.519Z,3.80
2022-08-16T14:04:37.956Z,4.20
2022-08-16T14:07:09.080Z,4.13
2022-08-16T14:09:43.605Z,4.28
2022-08-16T14:12:21.810Z,4.38
2022-08-16T14:14:54.541Z,4.00
2022-08-16T14:17:29.470Z,4.18
2022-08-16T14:19:59.769Z,3.60
2022-08-16T14:22:35.958Z,3.70
2022-08-16T14:25:16.362Z,3.72
2022-08-16T14:27:47.072Z,3.38
2022-08-16T14:30:19.513Z,3.72
2022-08-16T14:32:50.954Z,3.80
2022-08-16T14:35:29.301Z,4.00
2022-08-16T14:38:19.128Z,3.75
2022-08-16T14:40:54.988Z,4.15
2022-08-16T14:43:23.075Z,4.15
2022-08-16T14:45:54.653Z,3.72
2022-08-16T14:48:26.838Z,4.57
2022-08-16T14:50:57.667Z,4.25
2022-08-16T14:53:31.314Z,4.15
2022-08-16T14:56:00.489Z,3.55
2022-08-16T14:58:34.964Z,4.57
2022-08-16T15:01:10.199Z,4.03
2022-08-16T15:03:38.025Z,3.97
2022-08-16T15:06:10.366Z,4.15
2022-08-16T15:08:46.038Z,3.72
2022-08-16T15:11:13.011Z,4.47
2022-08-16T15:13:41.027Z,4.40
2022-08-16T15:16:08.208Z,4.00
2022-08-16T15:18:42.774Z,4.10
2022-08-16T15:21:16.199Z,4.15
2022-08-16T15:23:47.818Z,4.10
2022-08-16T15:26:34.674Z,3.53
2022-08-16T15:29:11.082Z,3.88
2022-08-16T15:31:44.311Z,3.70
2022-08-16T15:34:21.866Z,3.17
2022-08-16T15:36:55.560Z,3.83
2022-08-16T15:39:35.378Z,3.50
2022-08-16T15:42:11.199Z,3.42
2022-08-16T15:44:50.874Z,3.63
2022-08-16T15:47:25.926Z,3.63
2022-08-16T15:49:55.710Z,3.90
2022-08-16T15:52:35.437Z,3.63
2022-08-16T15:55:23.943Z,4.80
2022-08-16T15:57:56.125Z,4.20
2022-08-16T16:00:23.244Z,3.78
2022-08-16T16:03:16.208Z,4.28
2022-08-16T16:05:48.346Z,4.35
2022-08-16T16:08:25.064Z,3.50
2022-08-16T16:10:59.146Z,3.80
2022-08-16T16:13:26.129Z,3.50
2022-08-16T16:15:57.662Z,3.22
2022-08-16T16:18:30.002Z,3.58
2022-08-16T16:21:06.298Z,3.72
2022-08-16T16:23:41.238Z,3.67
2022-08-16T16:26:19.392Z,4.03
2022-08-16T16:29:08.484Z,4.10
2022-08-16T16:31:40.346Z,3.58
2022-08-16T16:34:11.023Z,3.55
2022-08-16T16:36:41.004Z,3.65
2022-08-16T16:39:18.266Z,3.70
2022-08-16T16:41:47.187Z,4.20
2022-08-16T16:44:18.217Z,4.32
2022-08-16T16:47:00.963Z,3.60
2022-08-16T16:49:30.054Z,3.65
2022-08-16T16:52:07.150Z,3.70
2022-08-16T16:54:40.125Z,3.83
2022-08-16T16:57:26.885Z,3.60
2022-08-16T16:59:56.390Z,3.40
2022-08-16T17:02:46.377Z,3.65
2022-08-16T17:05:15.119Z,3.25
2022-08-16T17:07:44.573Z,3.20
2022-08-16T17:10:46.589Z,2.90
2022-08-16T17:13:06.793Z,3.30
2022-08-16T17:15:39.541Z,3.60
2022-08-16T17:19:14.570Z,3.03
2022-08-16T17:20:59.742Z,2.95
2022-08-16T17:23:58.562Z,3.22
2022-08-16T17:26:18.832Z,3.33
2022-08-16T17:29:00.174Z,3.23
2022-08-16T17:31:41.073Z,3.23
2022-08-16T17:34:31.032Z,3.23
2022-08-16T17:37:04.927Z,2.92
2022-08-16T17:39:54.851Z,3.10
2022-08-16T17:42:28.575Z,2.90
2022-08-16T17:44:58.595Z,2.83
2022-08-16T17:47:26.134Z,3.60
2022-08-16T17:49:57.126Z,2.97
2022-08-16T17:52:28.533Z,3.27
2022-08-16T17:55:01.496Z,3.10
2022-08-16T17:57:35.813Z,3.00
2022-08-16T18:00:10.866Z,3.30
2022-08-16T18:02:43.703Z,3.40
2022-08-16T18:05:14.901Z,2.77
2022-08-16T18:07:43.827Z,3.13
2022-08-16T18:10:14.799Z,2.70
2022-08-16T18:13:00.356Z,3.07
2022-08-16T18:15:27.705Z,3.30
2022-08-16T18:17:57.051Z,2.90
2022-08-16T18:20:45.795Z,3.00
2022-08-16T18:23:14.966Z,3.30
2022-08-16T18:25:55.406Z,3.43
2022-08-16T18:28:26.730Z,3.07
2022-08-16T18:31:01.199Z,4.40
2022-08-16T18:33:43.764Z,4.90
2022-08-16T18:36:20.949Z,4.23
2022-08-16T18:38:52.597Z,4.10
2022-08-16T18:41:26.634Z,4.40
2022-08-16T18:44:23.089Z,3.30
2022-08-16T18:46:51.049Z,4.40
2022-08-16T18:49:19.141Z,4.63
2022-08-16T18:51:47.065Z,5.77
2022-08-16T18:54:24.506Z,4.87
2022-08-16T18:56:54.331Z,5.17
2022-08-16T18:59:32.078Z,3.83
2022-08-16T19:02:05.119Z,3.80
2022-08-16T19:04:56.955Z,3.73
2022-08-16T19:07:30.528Z,3.60
2022-08-16T19:10:04.474Z,3.40
2022-08-16T19:12:42.215Z,3.30
2022-08-16T19:15:29.873Z,3.20
2022-08-16T19:18:04.149Z,3.27
2022-08-16T19:20:33.337Z,3.43
2022-08-16T19:23:04.617Z,3.60
2022-08-16T19:25:48.361Z,3.80
2022-08-16T19:28:51.665Z,3.43
2022-08-16T19:31:35.762Z,3.50
2022-08-16T19:34:05.001Z,4.00
2022-08-16T19:36:40.263Z,4.40
2022-08-16T19:39:15.867Z,4.73
2022-08-16T19:41:52.063Z,3.93
2022-08-16T19:44:22.524Z,3.90
2022-08-16T19:46:50.335Z,3.93
2022-08-16T19:49:18.513Z,3.83
2022-08-16T19:51:48.559Z,3.90
2022-08-16T19:54:18.806Z,3.90
2022-08-16T19:56:45.600Z,4.07
2022-08-16T19:59:20.648Z,4.50
2022-08-16T20:01:52.769Z,4.03
2022-08-16T20:04:22.627Z,3.80
2022-08-16T20:06:51.066Z,3.83
2022-08-16T20:09:21.195Z,3.40
2022-08-16T20:11:54.308Z,3.33
2022-08-16T20:14:25.726Z,3.40
2022-08-16T20:16:59.747Z,3.57
2022-08-16T20:19:29.737Z,3.70
2022-08-16T20:22:49.836Z,3.70
2022-08-16T20:25:16.049Z,4.17
2022-08-16T20:27:45.328Z,4.00
2022-08-16T20:30:16.086Z,4.00
2022-08-16T20:32:44.765Z,4.03
2022-08-16T20:35:14.717Z,4.40
2022-08-16T20:37:43.619Z,3.97
2022-08-16T20:40:33.970Z,3.40
2022-08-16T20:43:19.057Z,3.83
2022-08-16T20:45:51.451Z,3.80
2022-08-16T20:48:20.491Z,3.80
2022-08-16T20:50:47.271Z,4.30
2022-08-16T20:53:16.732Z,4.10
2022-08-16T20:55:48.955Z,4.00
2022-08-16T20:58:17.870Z,4.07
2022-08-16T21:00:45.410Z,3.47
2022-08-16T21:03:15.889Z,4.37
2022-08-16T21:05:46.385Z,3.90
2022-08-16T21:08:51.775Z,3.80
2022-08-16T21:11:08.587Z,3.63
2022-08-16T21:13:42.177Z,3.93
2022-08-16T21:16:12.102Z,3.77
2022-08-16T21:18:39.045Z,3.67
2022-08-16T21:21:05.826Z,3.50
2022-08-16T21:23:34.901Z,3.50
2022-08-16T21:26:05.815Z,3.90
2022-08-16T21:28:43.667Z,3.57
2022-08-16T21:31:15.669Z,3.93
2022-08-16T21:33:55.230Z,3.97
2022-08-16T21:36:35.538Z,4.60
2022-08-16T21:39:06.260Z,3.67
2022-08-16T21:41:38.702Z,4.33
2022-08-16T21:44:08.487Z,4.20
2022-08-16T21:46:39.325Z,3.87
2022-08-16T21:49:06.483Z,3.87
2022-08-16T21:51:36.236Z,4.37
2022-08-16T21:54:06.019Z,3.67
2022-08-16T21:56:35.611Z,3.50
2022-08-16T21:59:11.384Z,3.50
2022-08-16T22:01:44.367Z,3.60
2022-08-16T22:04:37.341Z,3.77
2022-08-16T22:07:03.887Z,3.63
2022-08-16T22:09:37.871Z,3.73
2022-08-16T22:12:06.708Z,3.57
2022-08-16T22:14:38.094Z,4.20
2022-08-16T22:17:07.590Z,4.07
2022-08-16T22:19:34.843Z,3.50
2022-08-16T22:22:02.277Z,3.80
2022-08-16T22:24:29.914Z,3.87
2022-08-16T22:26:59.670Z,3.63
2022-08-16T22:29:26.965Z,3.93
2022-08-16T22:31:56.325Z,3.70
2022-08-16T22:34:23.853Z,4.27
2022-08-16T22:36:51.762Z,3.73
2022-08-16T22:39:19.466Z,4.13
2022-08-16T22:41:49.728Z,4.10
2022-08-16T22:44:18.737Z,3.63
2022-08-16T22:46:45.894Z,3.67
2022-08-16T22:49:13.726Z,3.60
2022-08-16T22:51:41.367Z,3.43
2022-08-16T22:54:44.319Z,3.50
2022-08-16T22:57:01.599Z,3.70
2022-08-16T22:59:31.918Z,3.40
2022-08-16T23:02:02.678Z,3.63
2022-08-16T23:04:32.519Z,4.10
2022-08-16T23:06:59.882Z,3.97
2022-08-16T23:09:32.118Z,3.90
2022-08-16T23:12:07.172Z,3.80
2022-08-16T23:14:38.591Z,4.03
2022-08-16T23:17:08.029Z,3.33
2022-08-16T23:19:34.840Z,3.77
2022-08-16T23:22:07.372Z,4.13
2022-08-16T23:24:37.223Z,3.73
2022-08-16T23:27:15.513Z,4.03
2022-08-16T23:29:42.326Z,4.07
2022-08-16T23:32:11.999Z,3.90
2022-08-16T23:34:38.891Z,3.77
2022-08-16T23:37:07.848Z,3.67
2022-08-16T23:39:35.709Z,3.77
2022-08-16T23:42:49.627Z,4.00
2022-08-16T23:45:07.336Z,3.97
2022-08-16T23:47:37.093Z,3.80
2022-08-16T23:50:08.903Z,3.50
2022-08-16T23:52:48.583Z,3.90
2022-08-16T23:55:22.760Z,3.63
2022-08-16T23:57:50.202Z,3.50
